createdAt,value
2017-02-18T08:25:16.702Z,5.8
2017-02-18T08:26:22.245Z,5.8
2017-02-18T08:27:28.207Z,5.9
2017-02-18T08:28:33.434Z,6.1
2017-02-18T08:29:39.432Z,6.1
2017-02-18T08:30:45.492Z,6.2
2017-02-18T08:31:51.490Z,5.9
2017-02-18T08:32:56.823Z,5.8
2017-02-18T08:34:01.070Z,5.9
2017-02-18T08:35:07.069Z,6
2017-02-18T08:36:13.064Z,6
2017-02-18T08:37:17.748Z,6.2
2017-02-18T08:38:23.743Z,6
2017-02-18T08:39:29.787Z,6.1
2017-02-18T08:40:35.753Z,6.2
2017-02-18T08:41:41.776Z,6.2
2017-02-18T08:42:47.765Z,6.3
2017-02-18T08:43:53.757Z,6.2
2017-02-18T08:44:59.763Z,6.2
2017-02-18T08:46:05.806Z,6
2017-02-18T08:47:11.808Z,6.1
2017-02-18T08:48:17.801Z,6.1
2017-02-18T08:49:23.820Z,6.2
2017-02-18T08:50:29.827Z,6
2017-02-18T08:51:34.496Z,5.9
2017-02-18T08:52:39.439Z,5.9
2017-02-18T08:53:45.444Z,6
2017-02-18T08:54:51.445Z,6.2
2017-02-18T08:55:57.441Z,6.1
2017-02-18T08:57:03.440Z,6.1
2017-02-18T08:58:08.776Z,6.1
2017-02-18T08:59:14.786Z,5.9
2017-02-18T09:00:20.804Z,6
2017-02-18T09:01:26.799Z,6.2
2017-02-18T09:02:32.135Z,6.3
2017-02-18T09:03:38.135Z,6.2
2017-02-18T09:04:43.471Z,6.1
2017-02-18T09:05:49.466Z,6.1
2017-02-18T09:06:55.464Z,6.1
2017-02-18T09:08:01.482Z,5.9
2017-02-18T09:09:07.485Z,6.1
2017-02-18T09:10:13.483Z,6
2017-02-18T09:11:19.503Z,6.1
2017-02-18T09:12:25.505Z,6.2
2017-02-18T09:13:31.567Z,6.2
2017-02-18T09:14:37.593Z,6
2017-02-18T09:15:43.684Z,6.2
2017-02-18T09:16:49.616Z,6.1
2017-02-18T09:17:55.637Z,6.2
2017-02-18T09:19:01.621Z,6.2
2017-02-18T09:20:07.657Z,6.3
2017-02-18T09:21:13.709Z,5.9
2017-02-18T09:22:19.729Z,6.1
2017-02-18T09:23:25.935Z,6.3
2017-02-18T09:24:31.765Z,6.3
2017-02-18T09:25:37.803Z,6.1
2017-02-18T09:26:42.705Z,6.3
2017-02-18T09:27:48.100Z,6.3
2017-02-18T09:28:54.100Z,6.1
2017-02-18T09:30:00.101Z,6.3
2017-02-18T09:31:06.120Z,6.2
2017-02-18T09:32:12.121Z,6.2
2017-02-18T09:33:18.173Z,6.2
2017-02-18T09:34:24.174Z,6.2
2017-02-18T09:35:29.361Z,6.3
2017-02-18T09:36:35.364Z,6.2
2017-02-18T09:37:41.370Z,6.2
2017-02-18T09:38:47.384Z,6.2
2017-02-18T09:39:53.378Z,6.3
2017-02-18T09:40:59.401Z,6.3
2017-02-18T09:42:05.436Z,6.3
2017-02-18T09:43:09.709Z,6.3
2017-02-18T09:44:15.699Z,6.5
2017-02-18T09:45:21.739Z,6.4
2017-02-18T09:46:27.897Z,6.4
2017-02-18T09:47:33.744Z,6.3
2017-02-18T09:48:39.747Z,6.3
2017-02-18T09:49:44.417Z,6.2
2017-02-18T09:50:50.417Z,6.2
2017-02-18T09:51:56.405Z,6.1
2017-02-18T09:53:02.422Z,6.1
2017-02-18T09:54:08.429Z,6.1
2017-02-18T09:55:14.419Z,6.1
2017-02-18T09:56:20.410Z,6.3
2017-02-18T09:57:26.418Z,6.3
2017-02-18T09:58:31.820Z,6.3
2017-02-18T09:59:37.824Z,6.2
2017-02-18T10:00:43.843Z,6.2
2017-02-18T10:01:49.886Z,6.2
2017-02-18T10:02:55.883Z,6.2
2017-02-18T10:04:01.913Z,6.2
2017-02-18T10:05:07.910Z,5.9
2017-02-18T10:06:13.930Z,6
2017-02-18T10:07:19.928Z,6.1
2017-02-18T10:08:25.930Z,6.2
2017-02-18T10:10:40.638Z,5.9
2017-02-18T10:11:46.644Z,5.9
2017-02-18T10:12:52.635Z,5.8
2017-02-18T10:13:58.644Z,6
2017-02-18T10:15:04.638Z,5.9
2017-02-18T10:16:10.837Z,6
2017-02-18T10:17:15.784Z,5.9
2017-02-18T10:18:21.736Z,6
2017-02-18T10:19:27.731Z,6
2017-02-18T10:20:32.636Z,6
2017-02-18T10:21:38.628Z,6.2
2017-02-18T10:22:44.635Z,6.2
2017-02-18T10:23:50.631Z,6.2
2017-02-18T10:24:56.628Z,6.2
2017-02-18T10:26:01.525Z,6.2
2017-02-18T10:27:07.588Z,6.2
2017-02-18T10:28:12.871Z,6.2
2017-02-18T10:29:18.877Z,6.2
2017-02-18T10:30:24.895Z,6.2
2017-02-18T10:31:30.891Z,6.3
2017-02-18T10:32:36.890Z,6.4
2017-02-18T10:33:42.884Z,6.3
2017-02-18T10:34:48.916Z,6.2
2017-02-18T10:35:55.040Z,6.3
2017-02-18T10:37:00.921Z,6.3
2017-02-18T10:38:06.921Z,6.3
2017-02-18T10:39:12.924Z,6.2
2017-02-18T10:40:18.316Z,6.3
2017-02-18T10:41:24.311Z,6.2
2017-02-18T10:42:30.309Z,6.2
2017-02-18T10:43:36.321Z,6.3
2017-02-18T10:44:42.429Z,6.4
2017-02-18T10:45:47.764Z,6.4
2017-02-18T10:46:53.098Z,6.4
2017-02-18T10:47:59.146Z,6.4
2017-02-18T10:49:05.147Z,6.5
2017-02-18T10:50:11.145Z,6.5
2017-02-18T10:51:17.302Z,6.3
2017-02-18T10:52:23.177Z,6.3
2017-02-18T10:53:28.510Z,6.3
2017-02-18T10:54:34.511Z,6.3
2017-02-18T10:55:40.509Z,6.3
2017-02-18T10:56:46.506Z,6
2017-02-18T10:57:52.591Z,6.2
2017-02-18T10:58:58.518Z,6.3
2017-02-18T11:00:04.517Z,6.3
2017-02-18T11:01:10.513Z,6.2
2017-02-18T11:02:16.510Z,6.2
2017-02-18T11:03:22.581Z,6.2
2017-02-18T11:04:28.575Z,6.1
2017-02-18T11:05:34.584Z,6.2
2017-02-18T11:06:40.589Z,6.3
2017-02-18T11:07:46.581Z,6.3
2017-02-18T11:08:51.493Z,6.4
2017-02-18T11:09:57.491Z,6.3
2017-02-18T11:11:02.408Z,6.3
2017-02-18T11:12:08.401Z,6.4
2017-02-18T11:13:14.407Z,6.5
2017-02-18T11:14:20.415Z,6.2
2017-02-18T11:15:26.410Z,6.3
2017-02-18T11:16:32.410Z,6.2
2017-02-18T11:17:38.775Z,6.4
2017-02-18T11:18:43.560Z,6.5
2017-02-18T11:19:49.560Z,6.2
2017-02-18T11:20:55.560Z,6.3
2017-02-18T11:22:01.562Z,6.4
2017-02-18T11:23:07.552Z,6.6
2017-02-18T11:24:13.554Z,6.4
2017-02-18T11:25:19.552Z,6.3
2017-02-18T11:26:25.554Z,6.2
2017-02-18T11:27:30.451Z,6.3
2017-02-18T11:28:36.450Z,6.3
2017-02-18T11:29:42.442Z,6.2
2017-02-18T11:30:48.445Z,6.2
2017-02-18T11:31:53.353Z,6.2
2017-02-18T11:32:59.344Z,6
2017-02-18T11:34:04.248Z,6.1
2017-02-18T11:35:10.247Z,6.1
2017-02-18T11:36:16.245Z,6
2017-02-18T11:37:22.240Z,6
2017-02-18T11:38:26.911Z,6
2017-02-18T11:39:32.905Z,6.1
2017-02-18T11:40:38.902Z,6.1
2017-02-18T11:41:45.267Z,5.9
2017-02-18T11:42:51.213Z,5.7
2017-02-18T11:43:57.211Z,5.7
2017-02-18T11:45:03.207Z,5.8
2017-02-18T11:46:09.206Z,5.7
2017-02-18T11:47:15.203Z,5.8
2017-02-18T11:48:20.539Z,5.8
2017-02-18T11:49:26.530Z,5.6
2017-02-18T11:50:31.430Z,5.6
2017-02-18T11:51:37.929Z,5.7
2017-02-18T11:52:43.448Z,5.7
2017-02-18T11:53:49.446Z,5.7
2017-02-18T11:54:55.440Z,5.8
2017-02-18T11:56:01.446Z,5.8
2017-02-18T11:57:07.439Z,5.7
2017-02-18T11:58:13.438Z,5.7
2017-02-18T11:59:19.433Z,5.7
2017-02-18T12:00:25.438Z,5.7
2017-02-18T12:01:30.106Z,5.7
2017-02-18T12:02:36.107Z,5.8
2017-02-18T12:03:42.104Z,5.8
2017-02-18T12:04:48.099Z,5.8
2017-02-18T12:05:54.093Z,6
2017-02-18T12:06:59.441Z,6
2017-02-18T12:08:04.776Z,5.8
2017-02-18T12:09:10.109Z,5.9
2017-02-18T12:10:16.114Z,5.7
2017-02-18T12:11:21.446Z,5.7
2017-02-18T12:12:27.447Z,5.8
2017-02-18T12:13:33.443Z,5.8
2017-02-18T12:14:39.443Z,5.8
2017-02-18T12:15:44.775Z,5.9
2017-02-18T12:16:50.777Z,5.8
2017-02-18T12:17:55.678Z,5.8
2017-02-18T12:19:01.676Z,5.6
2017-02-18T12:20:07.673Z,5.6
2017-02-18T12:21:13.667Z,5.6
2017-02-18T12:22:19.662Z,5.7
2017-02-18T12:23:25.660Z,5.7
2017-02-18T12:24:31.663Z,5.5
2017-02-18T12:25:37.660Z,5.5
2017-02-18T12:26:43.662Z,5.5
2017-02-18T12:27:49.669Z,5.5
2017-02-18T12:28:55.669Z,5.6
2017-02-18T12:30:01.666Z,5.8
2017-02-18T12:31:05.900Z,5.9
2017-02-18T12:32:11.896Z,6
2017-02-18T12:33:17.900Z,5.8
2017-02-18T12:34:23.907Z,5.9
2017-02-18T12:35:29.904Z,5.9
2017-02-18T12:36:35.899Z,5.8
2017-02-18T12:37:41.897Z,5.9
2017-02-18T12:38:47.934Z,5.8
2017-02-18T12:39:53.894Z,5.6
2017-02-18T12:40:58.796Z,5.6
2017-02-18T12:42:04.801Z,5.7
2017-02-18T12:43:10.804Z,5.8
2017-02-18T12:44:16.808Z,5.7
2017-02-18T12:45:22.805Z,5.7
2017-02-18T12:46:28.809Z,5.5
2017-02-18T12:47:34.141Z,5.5
2017-02-18T12:48:39.045Z,5.6
2017-02-18T12:49:45.038Z,5.6
2017-02-18T12:50:50.369Z,5.7
2017-02-18T12:51:56.363Z,5.8
2017-02-18T12:53:02.373Z,5.8
2017-02-18T12:54:08.369Z,5.7
2017-02-18T12:55:14.368Z,5.9
2017-02-18T12:56:20.366Z,5.9
2017-02-18T12:57:26.377Z,5.9
2017-02-18T12:58:32.374Z,6
2017-02-18T12:59:38.456Z,5.9
2017-02-18T13:00:44.822Z,5.8
2017-02-18T13:01:50.455Z,5.8
2017-02-18T13:02:56.459Z,5.8
2017-02-18T13:04:01.944Z,6
2017-02-18T13:05:07.298Z,5.8
2017-02-18T13:06:13.311Z,5.7
2017-02-18T13:07:19.320Z,5.7
2017-02-18T13:08:24.639Z,5.8
2017-02-18T13:09:30.634Z,5.9
2017-02-18T13:10:35.978Z,5.9
2017-02-18T13:11:41.975Z,5.9
2017-02-18T13:12:47.972Z,6
2017-02-18T13:13:53.973Z,6
2017-02-18T13:14:59.978Z,6.1
2017-02-18T13:16:05.315Z,6.1
2017-02-18T13:17:11.315Z,6
2017-02-18T13:18:17.317Z,5.8
2017-02-18T13:19:23.318Z,5.8
2017-02-18T13:20:28.658Z,5.9
2017-02-18T13:21:34.641Z,6
2017-02-18T13:22:40.647Z,6
2017-02-18T13:23:45.979Z,6
2017-02-18T13:24:51.311Z,6.1
2017-02-18T13:25:57.310Z,6.2
2017-02-18T13:27:03.316Z,6.3
2017-02-18T13:28:09.320Z,6.2
2017-02-18T13:29:15.314Z,6
2017-02-18T13:30:21.317Z,6.1
2017-02-18T13:31:27.323Z,6
2017-02-18T13:32:33.327Z,6.2
2017-02-18T13:33:39.315Z,6.1
2017-02-18T13:34:45.314Z,6.1
2017-02-18T13:35:51.321Z,6.2
2017-02-18T13:36:56.652Z,6.4
2017-02-18T13:38:02.657Z,6.2
2017-02-18T13:39:08.656Z,6.1
2017-02-18T13:40:14.655Z,6.1
2017-02-18T13:41:20.742Z,6
2017-02-18T13:42:26.008Z,5.8
2017-02-18T13:43:32.200Z,5.9
2017-02-18T13:44:37.539Z,5.8
2017-02-18T13:45:43.550Z,5.8
2017-02-18T13:46:49.542Z,5.8
2017-02-18T13:47:55.540Z,6
2017-02-18T13:49:01.900Z,5.7
2017-02-18T13:50:07.771Z,5.6
2017-02-18T13:51:13.843Z,5.6
2017-02-18T13:52:19.223Z,5.8
2017-02-18T13:53:24.119Z,5.7
2017-02-18T13:54:30.126Z,5.9
2017-02-18T13:55:35.630Z,6
2017-02-18T13:56:41.543Z,6
2017-02-18T13:58:55.160Z,6.2
2017-02-18T14:00:00.134Z,6
2017-02-18T14:01:06.131Z,6
2017-02-18T14:02:11.480Z,6.1
2017-02-18T14:04:25.116Z,5.9
2017-02-18T14:05:31.108Z,5.9
2017-02-18T14:06:37.124Z,5.9
2017-02-18T14:07:42.040Z,5.8
2017-02-18T14:08:48.057Z,5.8
2017-02-18T14:09:54.030Z,5.7
2017-02-18T14:11:00.017Z,5.6
2017-02-18T14:12:06.011Z,5.6
2017-02-18T14:13:12.052Z,5.6
2017-02-18T14:14:18.058Z,5.7
2017-02-18T14:15:24.048Z,5.8
2017-02-18T14:16:30.045Z,6
2017-02-18T14:17:36.066Z,6
2017-02-18T14:18:42.061Z,6
2017-02-18T14:19:48.058Z,6.2
2017-02-18T14:20:54.060Z,6
2017-02-18T14:21:59.011Z,6
2017-02-18T14:23:04.361Z,6
2017-02-18T14:24:10.427Z,5.9
2017-02-18T14:25:16.429Z,5.8
2017-02-18T14:26:22.434Z,5.7
2017-02-18T14:27:28.628Z,5.8
2017-02-18T14:28:34.630Z,5.8
2017-02-18T14:29:39.977Z,5.8
2017-02-18T14:30:46.126Z,5.9
2017-02-18T14:31:52.116Z,6
2017-02-18T14:32:57.539Z,6.1
2017-02-18T14:34:02.430Z,6.1
2017-02-18T14:35:07.768Z,5.9
2017-02-18T14:36:13.763Z,5.7
2017-02-18T14:37:19.759Z,5.7
2017-02-18T14:38:25.782Z,5.7
2017-02-18T14:39:31.399Z,5.8
2017-02-18T14:40:37.414Z,5.7
2017-02-18T14:41:43.434Z,5.9
2017-02-18T14:42:49.435Z,5.8
2017-02-18T14:43:54.331Z,5.7
2017-02-18T14:44:59.226Z,5.8
2017-02-18T14:46:05.224Z,5.9
2017-02-18T14:48:20.263Z,5.9
2017-02-18T14:49:26.245Z,5.8
2017-02-18T14:50:32.320Z,5.9
2017-02-18T14:51:37.179Z,5.8
2017-02-18T14:52:43.174Z,5.7
2017-02-18T14:53:49.183Z,5.8
2017-02-18T14:54:53.523Z,5.9
2017-02-18T14:55:59.652Z,5.8
2017-02-18T14:57:05.678Z,5.8
2017-02-18T14:59:20.416Z,5.9
2017-02-18T15:00:26.418Z,5.8
2017-02-18T15:01:32.412Z,5.8
2017-02-18T15:02:38.413Z,5.7
2017-02-18T15:03:51.884Z,5.8
2017-02-18T15:04:57.885Z,5.8
2017-02-18T15:06:10.678Z,5.9
2017-02-18T15:07:14.463Z,6
2017-02-18T15:08:20.479Z,6
2017-02-18T15:09:25.814Z,5.8
2017-02-18T15:10:31.814Z,5.8
2017-02-18T15:11:37.812Z,6
2017-02-18T15:12:43.811Z,6
2017-02-18T15:13:49.809Z,6.1
2017-02-18T15:14:55.803Z,6.1
2017-02-18T15:16:01.807Z,5.9
2017-02-18T15:17:07.811Z,5.9
2017-02-18T15:18:13.812Z,5.9
2017-02-18T15:19:19.812Z,5.8
2017-02-18T15:20:24.719Z,5.7
2017-02-18T15:21:30.056Z,5.9
2017-02-18T15:22:36.048Z,6
2017-02-18T15:23:42.054Z,6
2017-02-18T15:24:48.057Z,5.9
2017-02-18T15:25:54.057Z,6
2017-02-18T15:27:00.063Z,5.9
2017-02-18T15:28:05.401Z,5.9
2017-02-18T15:29:11.403Z,6
2017-02-18T15:30:17.404Z,6.1
2017-02-18T15:31:23.400Z,6.1
2017-02-18T15:32:29.402Z,6.1
2017-02-18T15:33:34.972Z,6.2
2017-02-18T15:34:40.980Z,5.9
2017-02-18T15:35:47.384Z,5.9
2017-02-18T15:36:52.962Z,5.9
2017-02-18T15:37:58.965Z,6
2017-02-18T15:39:04.965Z,6.1
2017-02-18T15:40:10.957Z,6
2017-02-18T15:41:16.990Z,5.9
2017-02-18T15:42:22.989Z,5.9
2017-02-18T15:43:28.986Z,5.9
2017-02-18T15:44:34.981Z,5.9
2017-02-18T15:45:40.979Z,5.8
2017-02-18T15:46:46.975Z,5.8
2017-02-18T15:47:52.976Z,5.8
2017-02-18T15:48:58.996Z,5.9
2017-02-18T15:50:04.995Z,5.9
2017-02-18T15:51:11.360Z,5.9
2017-02-18T15:52:17.185Z,5.9
2017-02-18T15:53:23.185Z,5.9
2017-02-18T15:54:29.182Z,5.9
2017-02-18T15:55:35.180Z,5.8
2017-02-18T15:56:41.179Z,5.9
2017-02-18T15:57:47.170Z,5.7
2017-02-18T15:58:53.175Z,5.7
2017-02-18T15:59:59.182Z,5.8
2017-02-18T16:01:05.181Z,5.9
2017-02-18T16:02:10.523Z,5.9
2017-02-18T16:03:15.862Z,5.5
2017-02-18T16:04:21.863Z,5.5
2017-02-18T16:05:27.918Z,5.4
2017-02-18T16:06:33.911Z,5.5
2017-02-18T16:07:39.252Z,5.5
2017-02-18T16:08:45.249Z,5.5
2017-02-18T16:09:50.744Z,5.6
2017-02-18T16:10:56.748Z,5.5
2017-02-18T16:12:02.750Z,5.6
2017-02-18T16:13:08.748Z,5.6
2017-02-18T16:14:14.778Z,5.6
2017-02-18T16:15:20.782Z,5.6
2017-02-18T16:16:26.777Z,5.5
2017-02-18T16:17:32.778Z,5.4
2017-02-18T16:18:38.778Z,5.4
2017-02-18T16:19:44.780Z,5.4
2017-02-18T16:20:50.775Z,5.5
2017-02-18T16:21:56.772Z,5.5
2017-02-18T16:23:02.103Z,5.5
2017-02-18T16:24:08.109Z,5.6
2017-02-18T16:25:14.328Z,5.6
2017-02-18T16:26:19.218Z,5.5
2017-02-18T16:27:25.223Z,5.6
2017-02-18T16:28:31.219Z,5.6
2017-02-18T16:29:36.557Z,5.5
2017-02-18T16:30:42.596Z,5.5
2017-02-18T16:31:47.887Z,5.5
2017-02-18T16:32:53.958Z,5.4
2017-02-18T16:33:59.946Z,5.5
2017-02-18T16:35:05.941Z,5.4
2017-02-18T16:36:11.939Z,5.4
2017-02-18T16:37:17.937Z,5.4
2017-02-18T16:38:23.935Z,5.4
2017-02-18T16:39:30.220Z,5.4
2017-02-18T16:40:35.946Z,5.4
2017-02-18T16:41:42.149Z,5.5
2017-02-18T16:42:48.266Z,5.4
2017-02-18T16:43:54.265Z,5.4
2017-02-18T16:45:00.267Z,5.4
2017-02-18T16:46:06.265Z,5.5
2017-02-18T16:47:12.683Z,5.4
2017-02-18T16:48:18.522Z,5.4
2017-02-18T16:49:24.522Z,5.5
2017-02-18T16:50:30.515Z,5.4
2017-02-18T16:53:02.356Z,5.2
2017-02-18T16:54:07.698Z,5.4
2017-02-18T16:55:13.687Z,5.3
2017-02-18T16:56:19.032Z,5.3
2017-02-18T16:57:25.034Z,5.2
2017-02-18T16:58:31.176Z,5.2
2017-02-18T16:59:37.173Z,5.3
2017-02-18T17:00:43.190Z,5.3
2017-02-18T17:01:49.198Z,5.3
2017-02-18T17:02:54.095Z,5.2
2017-02-18T17:04:00.092Z,5.3
2017-02-18T17:05:06.090Z,5.3
2017-02-18T17:06:12.091Z,5.1
2017-02-18T17:07:18.088Z,5.1
2017-02-18T17:08:24.278Z,5.2
2017-02-18T17:09:30.129Z,5.2
2017-02-18T17:10:35.465Z,5.1
2017-02-18T17:11:41.466Z,5.1
2017-02-18T17:12:47.468Z,5.1
2017-02-18T17:13:53.461Z,5
2017-02-18T17:14:59.656Z,5.1
2017-02-18T17:16:05.652Z,5.1
2017-02-18T17:17:11.650Z,5.3
2017-02-18T17:18:17.653Z,5.2
2017-02-18T17:19:23.652Z,5.1
2017-02-18T17:20:29.760Z,5.1
2017-02-18T17:21:35.661Z,5.1
2017-02-18T17:22:41.713Z,5
2017-02-18T17:23:47.713Z,5
2017-02-18T17:24:54.025Z,4.9
2017-02-18T17:26:00.008Z,5
2017-02-18T17:27:06.030Z,4.9
2017-02-18T17:28:12.607Z,5
2017-02-18T17:29:18.209Z,4.9
2017-02-18T17:30:24.208Z,4.8
2017-02-18T17:31:30.226Z,4.8
2017-02-18T17:32:36.224Z,4.9
2017-02-18T17:33:42.219Z,5
2017-02-18T17:34:48.218Z,5.1
2017-02-18T17:35:54.221Z,4.9
2017-02-18T17:37:00.230Z,4.9
2017-02-18T17:38:06.382Z,4.8
2017-02-18T17:39:12.264Z,4.7
2017-02-18T17:40:17.792Z,4.8
2017-02-18T17:41:23.785Z,4.8
2017-02-18T17:42:29.786Z,4.8
2017-02-18T17:43:34.681Z,4.8
2017-02-18T17:44:39.579Z,4.8
2017-02-18T17:45:44.913Z,4.9
2017-02-18T17:46:50.917Z,4.9
2017-02-18T17:47:56.921Z,5.1
2017-02-18T17:49:01.820Z,5.1
2017-02-18T17:50:07.818Z,5.1
2017-02-18T17:51:13.825Z,5.1
2017-02-18T17:52:19.823Z,5
2017-02-18T17:53:25.832Z,4.8
2017-02-18T17:54:31.828Z,4.9
2017-02-18T17:55:37.830Z,4.9
2017-02-18T17:56:43.829Z,5
2017-02-18T17:57:49.824Z,4.9
2017-02-18T17:58:55.819Z,4.8
2017-02-18T18:00:01.823Z,4.8
2017-02-18T18:01:07.819Z,4.9
2017-02-18T18:02:13.224Z,4.8
2017-02-18T18:03:19.214Z,4.8
2017-02-18T18:04:25.221Z,4.8
2017-02-18T18:05:31.216Z,4.9
2017-02-18T18:06:37.216Z,4.7
2017-02-18T18:07:43.214Z,4.7
2017-02-18T18:08:49.217Z,4.8
2017-02-18T18:09:55.216Z,4.9
2017-02-18T18:11:00.552Z,4.9
2017-02-18T18:12:06.555Z,5
2017-02-18T18:13:12.555Z,4.8
2017-02-18T18:14:18.552Z,4.9
2017-02-18T18:15:24.744Z,4.9
2017-02-18T18:16:30.741Z,4.7
2017-02-18T18:17:36.741Z,4.8
2017-02-18T18:18:42.735Z,4.9
2017-02-18T18:19:48.737Z,4.9
2017-02-18T18:20:54.739Z,4.8
2017-02-18T18:22:00.739Z,4.7
2017-02-18T18:23:06.734Z,4.7
2017-02-18T18:24:12.786Z,4.6
2017-02-18T18:25:18.786Z,4.6
2017-02-18T18:26:25.075Z,4.7
2017-02-18T18:27:30.123Z,4.6
2017-02-18T18:28:34.795Z,4.7
2017-02-18T18:29:40.797Z,4.7
2017-02-18T18:30:46.791Z,4.6
2017-02-18T18:31:52.796Z,4.5
2017-02-18T18:32:58.798Z,4.5
2017-02-18T18:34:04.798Z,4.5
2017-02-18T18:35:10.796Z,4.6
2017-02-18T18:36:16.799Z,4.5
2017-02-18T18:37:22.805Z,4.3
2017-02-18T18:38:28.813Z,4.4
2017-02-18T18:39:34.810Z,4.4
2017-02-18T18:40:40.808Z,4.4
2017-02-18T18:41:46.805Z,4.5
2017-02-18T18:42:52.851Z,4.6
2017-02-18T18:43:58.852Z,4.4
2017-02-18T18:45:04.190Z,4.4
2017-02-18T18:46:10.193Z,4.4
2017-02-18T18:47:16.230Z,4.5
2017-02-18T18:48:22.232Z,4.5
2017-02-18T18:49:28.237Z,4.6
2017-02-18T18:50:34.232Z,4.5
2017-02-18T18:51:40.370Z,4.5
2017-02-18T18:52:46.373Z,4.5
2017-02-18T18:53:52.368Z,4.5
2017-02-18T18:54:58.370Z,4.4
2017-02-18T18:56:04.448Z,4.5
2017-02-18T18:57:09.352Z,4.5
2017-02-18T18:58:15.355Z,4.6
2017-02-18T18:59:21.354Z,4.6
2017-02-18T19:00:27.350Z,4.6
2017-02-18T19:01:33.344Z,4.6
2017-02-18T19:02:39.351Z,4.5
2017-02-18T19:03:45.359Z,4.5
2017-02-18T19:04:51.360Z,4.6
2017-02-18T19:05:56.735Z,4.6
2017-02-18T19:07:01.602Z,4.5
2017-02-18T19:08:06.505Z,4.5
2017-02-18T19:09:12.500Z,4.6
2017-02-18T19:10:17.834Z,4.6
2017-02-18T19:11:23.881Z,4.6
2017-02-18T19:12:29.873Z,4.7
2017-02-18T19:13:35.878Z,4.7
2017-02-18T19:14:41.873Z,4.7
2017-02-18T19:15:47.874Z,4.5
2017-02-18T19:16:54.051Z,4.6
2017-02-18T19:17:59.917Z,4.7
2017-02-18T19:19:05.926Z,4.6
2017-02-18T19:20:12.017Z,4.7
2017-02-18T19:21:17.962Z,4.8
2017-02-18T19:22:23.952Z,4.8
2017-02-18T19:23:30.010Z,4.7
2017-02-18T19:24:36.003Z,4.6
2017-02-18T19:25:42.003Z,4.7
2017-02-18T19:26:47.997Z,4.6
2017-02-18T19:27:53.342Z,4.7
2017-02-18T19:28:59.342Z,4.7
2017-02-18T19:30:05.372Z,4.7
2017-02-18T19:31:11.360Z,4.7
2017-02-18T19:32:16.706Z,4.6
2017-02-18T19:33:22.705Z,4.5
2017-02-18T19:34:28.708Z,4.5
2017-02-18T19:35:34.719Z,4.5
2017-02-18T19:36:40.719Z,4.6
2017-02-18T19:37:46.711Z,4.7
2017-02-18T19:38:52.729Z,4.7
2017-02-18T19:39:58.874Z,4.7
2017-02-18T19:41:04.871Z,4.6
2017-02-18T19:42:10.901Z,4.7
2017-02-18T19:43:16.923Z,4.7
2017-02-18T19:44:22.922Z,4.7
2017-02-18T19:45:28.906Z,4.7
2017-02-18T19:46:34.903Z,4.8
2017-02-18T19:47:39.965Z,4.8
2017-02-18T19:48:45.305Z,4.9
2017-02-18T19:49:51.303Z,4.9
2017-02-18T19:50:57.581Z,4.7
2017-02-18T19:52:03.306Z,4.7
2017-02-18T19:53:09.319Z,4.7
2017-02-18T19:54:15.317Z,4.8
2017-02-18T19:55:21.308Z,4.8
2017-02-18T19:56:27.390Z,4.9
2017-02-18T19:57:33.316Z,4.9
2017-02-18T19:58:39.312Z,4.9
2017-02-18T19:59:45.310Z,4.9
2017-02-18T20:00:51.317Z,4.8
2017-02-18T20:01:56.658Z,4.8
2017-02-18T20:03:02.653Z,4.8
2017-02-18T20:04:07.991Z,4.9
2017-02-18T20:05:13.989Z,4.7
2017-02-18T20:06:19.994Z,4.6
2017-02-18T20:07:25.323Z,4.6
2017-02-18T20:08:31.328Z,4.7
2017-02-18T20:09:37.609Z,4.6
2017-02-18T20:10:43.331Z,4.6
2017-02-18T20:11:49.334Z,4.6
2017-02-18T20:12:55.330Z,4.6
2017-02-18T20:14:01.326Z,4.7
2017-02-18T20:15:07.330Z,4.8
2017-02-18T20:16:13.320Z,4.7
2017-02-18T20:17:19.319Z,4.7
2017-02-18T20:18:25.322Z,4.7
2017-02-18T20:19:31.320Z,4.8
2017-02-18T20:20:37.314Z,4.8
2017-02-18T20:21:43.311Z,4.9
2017-02-18T20:22:49.313Z,4.9
2017-02-18T20:23:55.333Z,4.8
2017-02-18T20:25:01.311Z,4.8
2017-02-18T20:26:06.640Z,4.7
2017-02-18T20:27:12.642Z,4.7
2017-02-18T20:28:18.645Z,4.7
2017-02-18T20:29:24.639Z,4.9
2017-02-18T20:30:30.633Z,4.9
2017-02-18T20:31:36.636Z,4.9
2017-02-18T20:32:42.637Z,4.7
2017-02-18T20:33:48.639Z,4.7
2017-02-18T20:34:53.972Z,4.8
2017-02-18T20:35:59.970Z,4.8
2017-02-18T20:37:05.965Z,4.8
2017-02-18T20:38:11.964Z,4.9
2017-02-18T20:39:17.967Z,4.9
2017-02-18T20:40:23.962Z,4.9
2017-02-18T20:41:29.959Z,4.7
2017-02-18T20:42:35.959Z,4.7
2017-02-18T20:43:41.955Z,4.8
2017-02-18T20:44:47.965Z,4.8
2017-02-18T20:45:53.294Z,4.8
2017-02-18T20:46:59.308Z,4.7
2017-02-18T20:48:04.649Z,4.7
2017-02-18T20:49:10.650Z,4.8
2017-02-18T20:50:16.636Z,4.7
2017-02-18T20:51:22.636Z,4.9
2017-02-18T20:52:28.639Z,4.7
2017-02-18T20:53:33.549Z,4.7
2017-02-18T20:54:39.533Z,4.7
2017-02-18T20:55:45.546Z,4.7
2017-02-18T20:56:51.532Z,4.6
2017-02-18T20:57:57.532Z,4.8
2017-02-18T20:59:03.523Z,4.8
2017-02-18T21:00:09.555Z,4.9
2017-02-18T21:01:14.890Z,4.9
2017-02-18T21:02:20.886Z,4.9
2017-02-18T21:03:26.893Z,4.8
2017-02-18T21:04:32.893Z,4.8
2017-02-18T21:05:38.889Z,4.8
2017-02-18T21:06:44.887Z,4.7
2017-02-18T21:07:50.890Z,4.8
2017-02-18T21:08:56.888Z,4.8
2017-02-18T21:10:02.887Z,4.8
2017-02-18T21:11:08.228Z,4.7
2017-02-18T21:12:14.229Z,4.8
2017-02-18T21:13:20.227Z,4.8
2017-02-18T21:14:26.260Z,4.7
2017-02-18T21:15:32.256Z,4.8
2017-02-18T21:16:37.158Z,4.9
2017-02-18T21:17:42.491Z,4.7
2017-02-18T21:18:48.494Z,4.7
2017-02-18T21:19:54.496Z,4.7
2017-02-18T21:20:59.833Z,4.7
2017-02-18T21:22:05.829Z,4.8
2017-02-18T21:23:11.826Z,4.9
2017-02-18T21:24:17.830Z,4.9
2017-02-18T21:25:23.834Z,4.9
2017-02-18T21:26:29.833Z,4.8
2017-02-18T21:27:35.825Z,4.9
2017-02-18T21:28:41.831Z,5
2017-02-18T21:29:47.834Z,5
2017-02-18T21:30:53.829Z,5
2017-02-18T21:31:59.869Z,4.9
2017-02-18T21:33:05.872Z,4.9
2017-02-18T21:34:11.872Z,4.9
2017-02-18T21:35:17.874Z,4.9
2017-02-18T21:36:23.873Z,4.9
2017-02-18T21:37:29.878Z,4.8
2017-02-18T21:38:35.876Z,4.9
2017-02-18T21:39:40.778Z,5
2017-02-18T21:40:46.774Z,5
2017-02-18T21:41:52.774Z,5
2017-02-18T21:42:58.787Z,5
2017-02-18T21:44:04.124Z,5.1
2017-02-18T21:45:09.029Z,5.1
2017-02-18T21:46:15.073Z,5
2017-02-18T21:47:21.070Z,4.9
2017-02-18T21:48:27.072Z,4.9
2017-02-18T21:49:33.068Z,4.9
2017-02-18T21:50:39.069Z,4.9
2017-02-18T21:51:44.401Z,4.9
2017-02-18T21:52:50.403Z,5
2017-02-18T21:53:56.402Z,4.9
2017-02-18T21:55:02.407Z,5
2017-02-18T21:56:08.399Z,5
2017-02-18T21:57:14.397Z,5.1
2017-02-18T21:58:20.388Z,5
2017-02-18T21:59:26.389Z,4.9
2017-02-18T22:00:32.383Z,5
2017-02-18T22:01:38.381Z,5
2017-02-18T22:02:43.719Z,5
2017-02-18T22:03:49.723Z,5
2017-02-18T22:04:55.055Z,5
2017-02-18T22:06:01.044Z,4.7
2017-02-18T22:07:07.045Z,4.7
2017-02-18T22:08:13.047Z,4.7
2017-02-18T22:09:18.387Z,4.9
2017-02-18T22:10:24.388Z,4.8
2017-02-18T22:11:30.389Z,4.9
2017-02-18T22:12:36.383Z,4.8
2017-02-18T22:13:42.381Z,4.8
2017-02-18T22:14:48.386Z,4.8
2017-02-18T22:15:53.288Z,4.7
2017-02-18T22:16:59.282Z,4.8
2017-02-18T22:18:04.611Z,4.7
2017-02-18T22:20:31.412Z,4.6
2017-02-18T22:21:37.406Z,4.6
2017-02-18T22:22:43.446Z,4.6
2017-02-18T22:23:49.450Z,4.6
2017-02-18T22:24:54.782Z,4.6
2017-02-18T22:26:00.784Z,4.6
2017-02-18T22:27:06.774Z,4.6
2017-02-18T22:28:12.813Z,4.5
2017-02-18T22:29:18.449Z,4.4
2017-02-18T22:30:24.163Z,4.4
2017-02-18T22:31:30.208Z,4.4
2017-02-18T22:32:36.205Z,4.5
2017-02-18T22:33:42.358Z,4.4
2017-02-18T22:34:48.359Z,4.4
2017-02-18T22:35:54.362Z,4.4
2017-02-18T22:36:59.257Z,4.4
2017-02-18T22:38:05.250Z,4.4
2017-02-18T22:39:11.419Z,4.5
2017-02-18T22:40:17.448Z,4.5
2017-02-18T22:41:23.432Z,4.4
2017-02-18T22:42:29.431Z,4.5
2017-02-18T22:43:34.765Z,4.4
2017-02-18T22:44:40.094Z,4.4
2017-02-18T22:45:46.088Z,4.4
2017-02-18T22:46:52.089Z,4.4
2017-02-18T22:47:58.087Z,4.3
2017-02-18T22:49:04.091Z,4.4
2017-02-18T22:50:10.095Z,4.3
2017-02-18T22:51:16.088Z,4.3
2017-02-18T22:52:22.115Z,4.2
2017-02-18T22:53:27.017Z,4.2
2017-02-18T22:54:33.014Z,4.2
2017-02-18T22:55:39.011Z,4.2
2017-02-18T22:56:45.011Z,4.1
2017-02-18T22:57:51.295Z,4.1
2017-02-18T22:58:57.062Z,4.1
2017-02-18T23:00:02.400Z,4.1
2017-02-18T23:01:08.399Z,4.1
2017-02-18T23:02:14.450Z,4.1
2017-02-18T23:03:20.543Z,4
2017-02-18T23:04:26.452Z,4.1
2017-02-18T23:05:32.455Z,4.1
2017-02-18T23:06:38.454Z,4
2017-02-18T23:07:44.455Z,4.1
2017-02-18T23:08:49.530Z,3.9
2017-02-18T23:09:55.663Z,4
2017-02-18T23:11:01.658Z,4
2017-02-18T23:12:06.602Z,4
2017-02-18T23:13:12.737Z,4
2017-02-18T23:14:18.843Z,3.9
2017-02-18T23:15:24.843Z,4
2017-02-18T23:16:29.737Z,3.9
2017-02-18T23:17:35.729Z,3.9
2017-02-18T23:18:41.731Z,3.8
2017-02-18T23:19:47.729Z,3.8
2017-02-18T23:20:53.729Z,3.7
2017-02-18T23:21:59.725Z,3.7
2017-02-18T23:23:05.724Z,3.6
2017-02-18T23:24:11.720Z,3.7
2017-02-18T23:25:17.712Z,3.8
2017-02-18T23:26:23.711Z,3.8
2017-02-18T23:27:29.710Z,3.8
2017-02-18T23:28:35.708Z,3.8
2017-02-18T23:29:41.751Z,3.7
2017-02-18T23:30:47.093Z,3.7
2017-02-18T23:31:53.098Z,3.7
2017-02-18T23:32:58.443Z,3.7
2017-02-18T23:34:03.774Z,3.7
2017-02-18T23:35:09.120Z,3.6
2017-02-18T23:36:15.111Z,3.5
2017-02-18T23:37:20.441Z,3.5
2017-02-18T23:38:25.774Z,3.5
2017-02-18T23:39:31.346Z,3.6
2017-02-18T23:40:37.182Z,3.6
2017-02-18T23:41:43.633Z,3.5
2017-02-18T23:42:49.280Z,3.4
2017-02-18T23:43:55.282Z,3.5
2017-02-18T23:45:01.556Z,3.5
2017-02-18T23:46:07.436Z,3.6
2017-02-18T23:47:13.449Z,3.4